Accueil
METAR-TAF:

METAR-TAF

Aéroports :

Stord, Norvège

latitude: 59-48N, longitude: 005-21E, altitude: 49 m

Observation

Le bulletin a été fait il y a 14 minutes, à 15:20 UTC
Vent 10 kt de nord-ouest
Température 8°C
Humidité 76%
Pression 1010 hPa
Visibilité 10 km ou plus
Quelques nuages à une hauteur de 3000 ft, Cumulus congestus.

METAR: ENSO 171520Z 31010KT 9999 FEW030TCU 08/04 Q1010

Heure: 17:34 (15:34 UTC)

Prévision

Le bulletin a été fait il y a 4 heures et 34 minutes, à 11:00 UTC
Prévision valable du 17 à 12 UTC au 17 à 18 UTC
Vent 12 kt de nord-ouest
Visibilité 10 km ou plus
Quelques nuages à une hauteur de 2000 ft

TAF: ENSO 171100Z 1712/1718 32012KT 9999 FEW020

Observations et prévisions météorologiques de plus de 4000 aéroports (messages METAR et TAF).

Les stations disponibles sont représentées par des disques jaunes et rouges sur la carte.

Passer la souris dessus pour voir le nom de la station.

Cliquer dessus pour voir les observations et prévisions météorologiques.

Pour changer de carte: cliquez sur les boutons verts avec une croix noire pour zoomer, sur le bouton vert avec un tiret pour effectuer un zoom arrière, ou sur les flèches vertes pour les cartes adjacentes.


METAR-TAF: